sensor_id;sensor_type;location;lat;lon;timestamp;temperature;humidity
17415;DHT22;8825;48.086;16.426;2023-02-19T00:02:03;15.80;54.10
17415;DHT22;8825;48.086;16.426;2023-02-19T00:04:30;15.80;54.10
17415;DHT22;8825;48.086;16.426;2023-02-19T00:06:58;15.70;54.20
17415;DHT22;8825;48.086;16.426;2023-02-19T00:09:26;15.80;54.30
17415;DHT22;8825;48.086;16.426;2023-02-19T00:11:53;15.70;54.90
17415;DHT22;8825;48.086;16.426;2023-02-19T00:14:21;15.70;54.50
17415;DHT22;8825;48.086;16.426;2023-02-19T00:16:48;15.70;54.50
17415;DHT22;8825;48.086;16.426;2023-02-19T00:19:18;15.70;54.60
17415;DHT22;8825;48.086;16.426;2023-02-19T00:21:47;15.70;54.60
17415;DHT22;8825;48.086;16.426;2023-02-19T00:24:14;15.60;54.70
17415;DHT22;8825;48.086;16.426;2023-02-19T00:26:43;15.60;54.80
17415;DHT22;8825;48.086;16.426;2023-02-19T00:29:13;15.60;55.40
17415;DHT22;8825;48.086;16.426;2023-02-19T00:31:41;15.60;55.00
17415;DHT22;8825;48.086;16.426;2023-02-19T00:34:10;15.60;55.10
17415;DHT22;8825;48.086;16.426;2023-02-19T00:36:39;15.60;55.20
17415;DHT22;8825;48.086;16.426;2023-02-19T00:39:09;15.60;55.30
17415;DHT22;8825;48.086;16.426;2023-02-19T00:41:37;15.50;55.30
17415;DHT22;8825;48.086;16.426;2023-02-19T00:44:06;15.60;55.40
17415;DHT22;8825;48.086;16.426;2023-02-19T00:46:37;15.50;55.60
17415;DHT22;8825;48.086;16.426;2023-02-19T00:49:06;15.50;55.50
17415;DHT22;8825;48.086;16.426;2023-02-19T00:51:36;15.50;55.70
17415;DHT22;8825;48.086;16.426;2023-02-19T00:54:04;15.50;55.90
17415;DHT22;8825;48.086;16.426;2023-02-19T00:56:32;15.50;55.90
17415;DHT22;8825;48.086;16.426;2023-02-19T00:59:00;15.50;56.00
17415;DHT22;8825;48.086;16.426;2023-02-19T01:01:27;15.50;55.90
17415;DHT22;8825;48.086;16.426;2023-02-19T01:03:55;15.50;56.00
17415;DHT22;8825;48.086;16.426;2023-02-19T01:06:23;15.50;56.10
17415;DHT22;8825;48.086;16.426;2023-02-19T01:08:50;15.40;56.20
17415;DHT22;8825;48.086;16.426;2023-02-19T01:11:18;15.50;56.30
17415;DHT22;8825;48.086;16.426;2023-02-19T01:13:46;15.50;56.40
17415;DHT22;8825;48.086;16.426;2023-02-19T01:16:15;15.40;56.40
17415;DHT22;8825;48.086;16.426;2023-02-19T01:18:44;15.40;56.50
17415;DHT22;8825;48.086;16.426;2023-02-19T01:21:20;15.40;56.60
17415;DHT22;8825;48.086;16.426;2023-02-19T01:23:45;15.40;56.70
17415;DHT22;8825;48.086;16.426;2023-02-19T01:26:14;15.40;56.70
17415;DHT22;8825;48.086;16.426;2023-02-19T01:28:43;15.30;56.80
17415;DHT22;8825;48.086;16.426;2023-02-19T01:31:13;15.30;56.90
17415;DHT22;8825;48.086;16.426;2023-02-19T01:33:45;15.30;57.20
17415;DHT22;8825;48.086;16.426;2023-02-19T01:36:14;15.30;57.40
17415;DHT22;8825;48.086;16.426;2023-02-19T01:38:44;15.20;57.40
17415;DHT22;8825;48.086;16.426;2023-02-19T01:41:13;15.20;57.60
17415;DHT22;8825;48.086;16.426;2023-02-19T01:46:45;15.20;57.90
17415;DHT22;8825;48.086;16.426;2023-02-19T01:52:16;15.20;58.30
17415;DHT22;8825;48.086;16.426;2023-02-19T01:54:45;15.00;58.30
17415;DHT22;8825;48.086;16.426;2023-02-19T01:57:29;15.00;58.40
17415;DHT22;8825;48.086;16.426;2023-02-19T01:59:56;15.00;58.60
17415;DHT22;8825;48.086;16.426;2023-02-19T02:02:23;15.00;58.70
17415;DHT22;8825;48.086;16.426;2023-02-19T02:04:53;15.00;58.90
17415;DHT22;8825;48.086;16.426;2023-02-19T02:07:22;14.90;59.00
17415;DHT22;8825;48.086;16.426;2023-02-19T02:10:07;14.90;59.00
17415;DHT22;8825;48.086;16.426;2023-02-19T02:12:49;14.90;59.10
17415;DHT22;8825;48.086;16.426;2023-02-19T02:15:17;14.90;59.10
17415;DHT22;8825;48.086;16.426;2023-02-19T02:17:56;14.80;59.20
17415;DHT22;8825;48.086;16.426;2023-02-19T02:20:49;14.80;59.40
17415;DHT22;8825;48.086;16.426;2023-02-19T02:24:01;14.80;59.40
17415;DHT22;8825;48.086;16.426;2023-02-19T02:31:34;14.70;60.00
17415;DHT22;8825;48.086;16.426;2023-02-19T02:33:58;14.70;60.10
17415;DHT22;8825;48.086;16.426;2023-02-19T02:36:34;14.70;60.20
17415;DHT22;8825;48.086;16.426;2023-02-19T02:39:03;14.60;60.10
17415;DHT22;8825;48.086;16.426;2023-02-19T02:41:33;14.60;60.20
17415;DHT22;8825;48.086;16.426;2023-02-19T02:44:00;14.60;60.20
17415;DHT22;8825;48.086;16.426;2023-02-19T02:46:32;14.60;60.40
17415;DHT22;8825;48.086;16.426;2023-02-19T02:49:08;14.70;60.50
17415;DHT22;8825;48.086;16.426;2023-02-19T02:51:44;14.60;60.40
17415;DHT22;8825;48.086;16.426;2023-02-19T02:54:25;14.60;60.60
17415;DHT22;8825;48.086;16.426;2023-02-19T02:57:07;14.60;61.20
17415;DHT22;8825;48.086;16.426;2023-02-19T02:59:38;14.60;61.90
17415;DHT22;8825;48.086;16.426;2023-02-19T03:02:13;14.50;62.10
17415;DHT22;8825;48.086;16.426;2023-02-19T03:04:56;14.50;62.40
17415;DHT22;8825;48.086;16.426;2023-02-19T03:07:55;14.50;62.50
17415;DHT22;8825;48.086;16.426;2023-02-19T03:14:29;14.40;62.90
17415;DHT22;8825;48.086;16.426;2023-02-19T03:17:37;14.30;62.90
17415;DHT22;8825;48.086;16.426;2023-02-19T03:22:51;14.30;63.70
17415;DHT22;8825;48.086;16.426;2023-02-19T03:25:27;14.30;64.10
17415;DHT22;8825;48.086;16.426;2023-02-19T03:28:15;14.30;64.40
17415;DHT22;8825;48.086;16.426;2023-02-19T03:30:46;14.30;64.50
17415;DHT22;8825;48.086;16.426;2023-02-19T03:36:04;14.20;64.70
17415;DHT22;8825;48.086;16.426;2023-02-19T03:38:55;14.20;64.80
17415;DHT22;8825;48.086;16.426;2023-02-19T03:47:42;14.20;65.50
17415;DHT22;8825;48.086;16.426;2023-02-19T03:50:16;14.20;64.90
17415;DHT22;8825;48.086;16.426;2023-02-19T03:55:45;14.10;65.70
17415;DHT22;8825;48.086;16.426;2023-02-19T03:58:15;14.10;65.10
17415;DHT22;8825;48.086;16.426;2023-02-19T04:03:25;14.00;65.20
17415;DHT22;8825;48.086;16.426;2023-02-19T04:05:57;14.00;66.10
17415;DHT22;8825;48.086;16.426;2023-02-19T04:08:24;14.00;65.20
17415;DHT22;8825;48.086;16.426;2023-02-19T04:10:53;14.10;65.30
17415;DHT22;8825;48.086;16.426;2023-02-19T04:13:26;14.10;65.30
17415;DHT22;8825;48.086;16.426;2023-02-19T04:15:56;14.00;65.30
17415;DHT22;8825;48.086;16.426;2023-02-19T04:18:27;14.10;65.40
17415;DHT22;8825;48.086;16.426;2023-02-19T04:20:55;14.10;65.40
17415;DHT22;8825;48.086;16.426;2023-02-19T04:23:25;14.10;65.30
17415;DHT22;8825;48.086;16.426;2023-02-19T04:25:57;14.00;65.40
17415;DHT22;8825;48.086;16.426;2023-02-19T04:28:27;14.00;65.50
17415;DHT22;8825;48.086;16.426;2023-02-19T04:30:54;14.00;65.50
17415;DHT22;8825;48.086;16.426;2023-02-19T04:33:22;14.10;65.60
17415;DHT22;8825;48.086;16.426;2023-02-19T04:35:49;14.10;65.50
17415;DHT22;8825;48.086;16.426;2023-02-19T04:38:17;14.10;65.50
17415;DHT22;8825;48.086;16.426;2023-02-19T04:40:44;14.10;65.80
17415;DHT22;8825;48.086;16.426;2023-02-19T04:43:12;14.10;65.90
17415;DHT22;8825;48.086;16.426;2023-02-19T04:45:40;14.10;66.10
17415;DHT22;8825;48.086;16.426;2023-02-19T04:48:08;14.10;66.50
17415;DHT22;8825;48.086;16.426;2023-02-19T04:50:37;14.00;66.70
17415;DHT22;8825;48.086;16.426;2023-02-19T04:53:06;14.00;66.80
17415;DHT22;8825;48.086;16.426;2023-02-19T04:55:37;14.00;66.80
17415;DHT22;8825;48.086;16.426;2023-02-19T04:58:05;14.00;67.00
17415;DHT22;8825;48.086;16.426;2023-02-19T05:00:52;14.00;67.00
17415;DHT22;8825;48.086;16.426;2023-02-19T05:03:20;14.00;66.70
17415;DHT22;8825;48.086;16.426;2023-02-19T05:05:47;14.00;67.10
17415;DHT22;8825;48.086;16.426;2023-02-19T05:08:15;14.00;67.10
17415;DHT22;8825;48.086;16.426;2023-02-19T05:10:42;14.00;67.10
17415;DHT22;8825;48.086;16.426;2023-02-19T05:13:10;14.00;67.00
17415;DHT22;8825;48.086;16.426;2023-02-19T05:15:37;14.00;66.80
17415;DHT22;8825;48.086;16.426;2023-02-19T05:18:05;14.00;66.80
17415;DHT22;8825;48.086;16.426;2023-02-19T05:20:32;14.00;67.00
17415;DHT22;8825;48.086;16.426;2023-02-19T05:23:00;14.00;67.30
17415;DHT22;8825;48.086;16.426;2023-02-19T05:25:27;14.00;66.80
17415;DHT22;8825;48.086;16.426;2023-02-19T05:27:55;14.00;67.10
17415;DHT22;8825;48.086;16.426;2023-02-19T05:30:24;13.90;67.20
17415;DHT22;8825;48.086;16.426;2023-02-19T05:32:52;13.90;67.60
17415;DHT22;8825;48.086;16.426;2023-02-19T05:35:19;13.90;67.80
17415;DHT22;8825;48.086;16.426;2023-02-19T05:37:47;13.90;67.80
17415;DHT22;8825;48.086;16.426;2023-02-19T05:40:14;13.90;68.00
17415;DHT22;8825;48.086;16.426;2023-02-19T05:42:42;13.80;68.00
17415;DHT22;8825;48.086;16.426;2023-02-19T05:45:09;13.80;68.20
17415;DHT22;8825;48.086;16.426;2023-02-19T05:47:37;13.80;68.10
17415;DHT22;8825;48.086;16.426;2023-02-19T05:50:04;13.80;68.10
17415;DHT22;8825;48.086;16.426;2023-02-19T05:52:32;13.80;67.80
17415;DHT22;8825;48.086;16.426;2023-02-19T05:55:00;13.70;67.70
17415;DHT22;8825;48.086;16.426;2023-02-19T05:57:27;13.80;67.70
17415;DHT22;8825;48.086;16.426;2023-02-19T05:59:55;13.70;67.70
17415;DHT22;8825;48.086;16.426;2023-02-19T06:02:23;13.70;67.80
17415;DHT22;8825;48.086;16.426;2023-02-19T06:04:50;13.70;67.80
17415;DHT22;8825;48.086;16.426;2023-02-19T06:07:18;13.70;68.00
17415;DHT22;8825;48.086;16.426;2023-02-19T06:09:48;13.70;68.20
17415;DHT22;8825;48.086;16.426;2023-02-19T06:12:14;13.70;68.30
17415;DHT22;8825;48.086;16.426;2023-02-19T06:14:42;13.70;69.20
17415;DHT22;8825;48.086;16.426;2023-02-19T06:17:29;13.70;68.40
17415;DHT22;8825;48.086;16.426;2023-02-19T06:19:56;13.70;68.20
17415;DHT22;8825;48.086;16.426;2023-02-19T06:22:24;13.70;69.30
17415;DHT22;8825;48.086;16.426;2023-02-19T06:24:52;13.70;68.40
17415;DHT22;8825;48.086;16.426;2023-02-19T06:27:19;13.70;68.40
17415;DHT22;8825;48.086;16.426;2023-02-19T06:29:47;13.70;68.20
17415;DHT22;8825;48.086;16.426;2023-02-19T06:32:14;13.70;67.80
17415;DHT22;8825;48.086;16.426;2023-02-19T06:34:42;13.70;67.70
17415;DHT22;8825;48.086;16.426;2023-02-19T06:37:09;13.70;67.20
17415;DHT22;8825;48.086;16.426;2023-02-19T06:39:37;13.70;66.90
17415;DHT22;8825;48.086;16.426;2023-02-19T06:42:04;13.80;66.90
17415;DHT22;8825;48.086;16.426;2023-02-19T06:44:32;13.80;66.80
17415;DHT22;8825;48.086;16.426;2023-02-19T06:47:00;13.80;66.50
17415;DHT22;8825;48.086;16.426;2023-02-19T06:49:27;13.80;65.90
17415;DHT22;8825;48.086;16.426;2023-02-19T06:51:55;13.90;65.90
17415;DHT22;8825;48.086;16.426;2023-02-19T06:54:22;13.90;65.70
17415;DHT22;8825;48.086;16.426;2023-02-19T06:56:51;13.90;65.40
17415;DHT22;8825;48.086;16.426;2023-02-19T06:59:19;13.90;65.30
17415;DHT22;8825;48.086;16.426;2023-02-19T07:01:47;14.00;65.00
17415;DHT22;8825;48.086;16.426;2023-02-19T07:04:14;14.00;64.60
17415;DHT22;8825;48.086;16.426;2023-02-19T07:06:42;14.00;64.60
17415;DHT22;8825;48.086;16.426;2023-02-19T07:09:10;14.00;64.10
17415;DHT22;8825;48.086;16.426;2023-02-19T07:11:39;14.10;64.20
17415;DHT22;8825;48.086;16.426;2023-02-19T07:14:12;14.10;63.80
17415;DHT22;8825;48.086;16.426;2023-02-19T07:16:37;14.10;63.40
17415;DHT22;8825;48.086;16.426;2023-02-19T07:19:04;14.20;63.30
17415;DHT22;8825;48.086;16.426;2023-02-19T07:21:32;14.20;63.30
17415;DHT22;8825;48.086;16.426;2023-02-19T07:24:01;14.20;62.70
17415;DHT22;8825;48.086;16.426;2023-02-19T07:26:29;14.20;62.60
17415;DHT22;8825;48.086;16.426;2023-02-19T07:28:56;14.30;62.60
17415;DHT22;8825;48.086;16.426;2023-02-19T07:31:24;14.30;62.10
17415;DHT22;8825;48.086;16.426;2023-02-19T07:33:51;14.30;61.80
17415;DHT22;8825;48.086;16.426;2023-02-19T07:36:20;14.30;61.90
17415;DHT22;8825;48.086;16.426;2023-02-19T07:38:55;14.30;61.80
17415;DHT22;8825;48.086;16.426;2023-02-19T07:41:24;14.40;61.70
17415;DHT22;8825;48.086;16.426;2023-02-19T07:43:53;14.40;61.50
17415;DHT22;8825;48.086;16.426;2023-02-19T07:46:21;14.40;61.70
17415;DHT22;8825;48.086;16.426;2023-02-19T07:48:49;14.40;61.50
17415;DHT22;8825;48.086;16.426;2023-02-19T07:51:19;14.40;61.40
17415;DHT22;8825;48.086;16.426;2023-02-19T07:53:48;14.40;61.50
17415;DHT22;8825;48.086;16.426;2023-02-19T07:56:19;14.40;61.20
17415;DHT22;8825;48.086;16.426;2023-02-19T07:58:46;14.30;61.10
17415;DHT22;8825;48.086;16.426;2023-02-19T08:01:19;14.30;61.20
17415;DHT22;8825;48.086;16.426;2023-02-19T08:03:51;14.30;60.90
17415;DHT22;8825;48.086;16.426;2023-02-19T08:06:19;14.30;61.30
17415;DHT22;8825;48.086;16.426;2023-02-19T08:08:46;14.30;61.50
17415;DHT22;8825;48.086;16.426;2023-02-19T08:11:14;14.30;61.60
17415;DHT22;8825;48.086;16.426;2023-02-19T08:13:59;14.30;61.80
17415;DHT22;8825;48.086;16.426;2023-02-19T08:16:27;14.30;61.80
17415;DHT22;8825;48.086;16.426;2023-02-19T08:19:13;14.30;61.70
17415;DHT22;8825;48.086;16.426;2023-02-19T08:21:41;14.30;61.50
17415;DHT22;8825;48.086;16.426;2023-02-19T08:24:09;14.30;61.60
17415;DHT22;8825;48.086;16.426;2023-02-19T08:26:36;14.30;62.20
17415;DHT22;8825;48.086;16.426;2023-02-19T08:29:05;14.30;61.10
17415;DHT22;8825;48.086;16.426;2023-02-19T08:31:33;14.30;61.10
17415;DHT22;8825;48.086;16.426;2023-02-19T08:34:01;14.40;61.40
17415;DHT22;8825;48.086;16.426;2023-02-19T08:36:29;14.30;62.20
17415;DHT22;8825;48.086;16.426;2023-02-19T08:38:56;14.30;62.90
17415;DHT22;8825;48.086;16.426;2023-02-19T08:41:24;14.30;63.00
17415;DHT22;8825;48.086;16.426;2023-02-19T08:43:51;14.30;63.10
17415;DHT22;8825;48.086;16.426;2023-02-19T08:46:19;14.30;62.60
17415;DHT22;8825;48.086;16.426;2023-02-19T08:48:48;14.30;62.70
17415;DHT22;8825;48.086;16.426;2023-02-19T08:51:15;14.30;62.20
17415;DHT22;8825;48.086;16.426;2023-02-19T08:53:43;14.40;62.30
17415;DHT22;8825;48.086;16.426;2023-02-19T08:56:13;14.50;62.00
17415;DHT22;8825;48.086;16.426;2023-02-19T08:58:41;14.60;61.90
17415;DHT22;8825;48.086;16.426;2023-02-19T09:01:10;14.60;60.90
17415;DHT22;8825;48.086;16.426;2023-02-19T09:03:38;14.70;60.20
17415;DHT22;8825;48.086;16.426;2023-02-19T09:06:06;14.70;60.20
17415;DHT22;8825;48.086;16.426;2023-02-19T09:08:33;14.90;59.90
17415;DHT22;8825;48.086;16.426;2023-02-19T09:11:02;14.90;59.50
17415;DHT22;8825;48.086;16.426;2023-02-19T09:13:32;14.90;59.20
17415;DHT22;8825;48.086;16.426;2023-02-19T09:16:02;14.90;59.30
17415;DHT22;8825;48.086;16.426;2023-02-19T09:18:30;14.80;60.50
17415;DHT22;8825;48.086;16.426;2023-02-19T09:21:04;14.70;61.60
17415;DHT22;8825;48.086;16.426;2023-02-19T09:23:33;14.60;62.70
17415;DHT22;8825;48.086;16.426;2023-02-19T09:26:02;14.60;63.80
17415;DHT22;8825;48.086;16.426;2023-02-19T09:28:32;14.50;64.80
17415;DHT22;8825;48.086;16.426;2023-02-19T09:31:04;14.40;65.80
17415;DHT22;8825;48.086;16.426;2023-02-19T09:33:32;14.30;65.70
17415;DHT22;8825;48.086;16.426;2023-02-19T09:36:00;14.30;66.20
17415;DHT22;8825;48.086;16.426;2023-02-19T09:38:29;14.20;66.20
17415;DHT22;8825;48.086;16.426;2023-02-19T09:40:57;14.10;66.20
17415;DHT22;8825;48.086;16.426;2023-02-19T09:43:27;14.10;66.30
17415;DHT22;8825;48.086;16.426;2023-02-19T09:48:44;14.10;66.50
17415;DHT22;8825;48.086;16.426;2023-02-19T09:51:12;14.30;66.90
17415;DHT22;8825;48.086;16.426;2023-02-19T09:53:42;14.40;66.00
17415;DHT22;8825;48.086;16.426;2023-02-19T09:56:10;14.70;65.40
17415;DHT22;8825;48.086;16.426;2023-02-19T09:58:45;15.10;64.00
17415;DHT22;8825;48.086;16.426;2023-02-19T10:01:35;15.50;62.60
17415;DHT22;8825;48.086;16.426;2023-02-19T10:04:03;15.80;59.80
17415;DHT22;8825;48.086;16.426;2023-02-19T10:06:31;15.70;59.30
17415;DHT22;8825;48.086;16.426;2023-02-19T10:09:21;15.80;59.10
17415;DHT22;8825;48.086;16.426;2023-02-19T10:11:33;16.00;58.90
17415;DHT22;8825;48.086;16.426;2023-02-19T10:14:13;16.30;58.40
17415;DHT22;8825;48.086;16.426;2023-02-19T10:19:30;16.70;57.30
17415;DHT22;8825;48.086;16.426;2023-02-19T10:21:59;17.30;56.30
17415;DHT22;8825;48.086;16.426;2023-02-19T10:24:29;18.00;55.90
17415;DHT22;8825;48.086;16.426;2023-02-19T10:26:57;18.70;54.80
17415;DHT22;8825;48.086;16.426;2023-02-19T10:29:24;19.40;52.70
17415;DHT22;8825;48.086;16.426;2023-02-19T10:32:11;19.90;49.00
17415;DHT22;8825;48.086;16.426;2023-02-19T10:34:39;20.30;48.60
17415;DHT22;8825;48.086;16.426;2023-02-19T10:37:09;20.70;47.50
17415;DHT22;8825;48.086;16.426;2023-02-19T10:39:45;21.00;46.00
17415;DHT22;8825;48.086;16.426;2023-02-19T10:42:15;21.20;45.30
17415;DHT22;8825;48.086;16.426;2023-02-19T10:47:31;21.70;43.60
17415;DHT22;8825;48.086;16.426;2023-02-19T10:50:00;21.90;43.10
17415;DHT22;8825;48.086;16.426;2023-02-19T10:52:30;22.10;42.60
17415;DHT22;8825;48.086;16.426;2023-02-19T10:57:47;22.30;41.20
17415;DHT22;8825;48.086;16.426;2023-02-19T11:02:48;22.50;40.60
17415;DHT22;8825;48.086;16.426;2023-02-19T11:05:17;22.60;40.00
17415;DHT22;8825;48.086;16.426;2023-02-19T11:07:57;22.60;39.40
17415;DHT22;8825;48.086;16.426;2023-02-19T11:16:05;22.20;39.30
17415;DHT22;8825;48.086;16.426;2023-02-19T11:18:33;21.90;39.70
17415;DHT22;8825;48.086;16.426;2023-02-19T11:21:04;21.40;40.10
17415;DHT22;8825;48.086;16.426;2023-02-19T11:23:37;21.00;40.70
17415;DHT22;8825;48.086;16.426;2023-02-19T11:28:59;20.30;41.90
17415;DHT22;8825;48.086;16.426;2023-02-19T11:31:31;20.00;42.20
17415;DHT22;8825;48.086;16.426;2023-02-19T11:36:45;19.60;42.90
17415;DHT22;8825;48.086;16.426;2023-02-19T11:39:19;19.30;42.90
17415;DHT22;8825;48.086;16.426;2023-02-19T11:42:14;19.20;43.60
17415;DHT22;8825;48.086;16.426;2023-02-19T11:48:06;19.00;44.60
17415;DHT22;8825;48.086;16.426;2023-02-19T11:51:00;18.90;45.20
17415;DHT22;8825;48.086;16.426;2023-02-19T11:53:33;18.80;45.20
17415;DHT22;8825;48.086;16.426;2023-02-19T11:56:26;18.80;46.00
17415;DHT22;8825;48.086;16.426;2023-02-19T12:04:52;18.60;46.00
17415;DHT22;8825;48.086;16.426;2023-02-19T12:10:00;18.60;46.30
17415;DHT22;8825;48.086;16.426;2023-02-19T12:12:29;18.70;47.00
17415;DHT22;8825;48.086;16.426;2023-02-19T12:18:06;18.50;45.50
17415;DHT22;8825;48.086;16.426;2023-02-19T12:23:37;18.00;46.70
17415;DHT22;8825;48.086;16.426;2023-02-19T12:29:30;17.50;47.20
17415;DHT22;8825;48.086;16.426;2023-02-19T12:32:06;17.30;47.40
17415;DHT22;8825;48.086;16.426;2023-02-19T12:34:42;17.00;48.10
17415;DHT22;8825;48.086;16.426;2023-02-19T12:40:45;16.80;49.20
17415;DHT22;8825;48.086;16.426;2023-02-19T12:43:17;16.90;49.80
17415;DHT22;8825;48.086;16.426;2023-02-19T12:45:48;17.00;49.70
17415;DHT22;8825;48.086;16.426;2023-02-19T12:51:21;17.20;47.80
17415;DHT22;8825;48.086;16.426;2023-02-19T12:53:55;17.30;47.90
17415;DHT22;8825;48.086;16.426;2023-02-19T12:56:45;17.30;47.90
17415;DHT22;8825;48.086;16.426;2023-02-19T12:58:58;17.30;47.50
17415;DHT22;8825;48.086;16.426;2023-02-19T13:01:33;17.30;47.10
17415;DHT22;8825;48.086;16.426;2023-02-19T13:04:36;17.30;47.50
17415;DHT22;8825;48.086;16.426;2023-02-19T13:06:52;17.30;47.50
17415;DHT22;8825;48.086;16.426;2023-02-19T13:09:27;17.30;48.10
17415;DHT22;8825;48.086;16.426;2023-02-19T13:12:03;17.40;48.10
17415;DHT22;8825;48.086;16.426;2023-02-19T13:14:41;17.40;47.60
17415;DHT22;8825;48.086;16.426;2023-02-19T13:19:45;17.40;47.10
17415;DHT22;8825;48.086;16.426;2023-02-19T13:22:21;17.40;47.40
17415;DHT22;8825;48.086;16.426;2023-02-19T13:25:05;17.50;46.80
17415;DHT22;8825;48.086;16.426;2023-02-19T13:36:18;17.30;46.00
17415;DHT22;8825;48.086;16.426;2023-02-19T13:38:46;17.20;46.10
17415;DHT22;8825;48.086;16.426;2023-02-19T13:44:05;17.20;46.70
17415;DHT22;8825;48.086;16.426;2023-02-19T13:46:36;17.20;46.40
17415;DHT22;8825;48.086;16.426;2023-02-19T13:49:24;17.10;46.70
17415;DHT22;8825;48.086;16.426;2023-02-19T13:51:59;17.10;46.80
17415;DHT22;8825;48.086;16.426;2023-02-19T13:54:30;17.00;47.00
17415;DHT22;8825;48.086;16.426;2023-02-19T14:02:40;16.70;47.50
17415;DHT22;8825;48.086;16.426;2023-02-19T14:05:13;16.70;47.70
17415;DHT22;8825;48.086;16.426;2023-02-19T14:07:51;16.60;48.10
17415;DHT22;8825;48.086;16.426;2023-02-19T14:10:54;16.60;48.40
17415;DHT22;8825;48.086;16.426;2023-02-19T14:30:56;15.90;49.50
17415;DHT22;8825;48.086;16.426;2023-02-19T14:33:29;15.80;49.70
17415;DHT22;8825;48.086;16.426;2023-02-19T14:38:52;15.60;49.70
17415;DHT22;8825;48.086;16.426;2023-02-19T14:41:21;15.60;50.10
17415;DHT22;8825;48.086;16.426;2023-02-19T14:43:51;15.50;50.40
17415;DHT22;8825;48.086;16.426;2023-02-19T14:49:05;15.40;51.60
17415;DHT22;8825;48.086;16.426;2023-02-19T14:51:40;15.30;53.30
17415;DHT22;8825;48.086;16.426;2023-02-19T14:54:17;15.20;54.70
17415;DHT22;8825;48.086;16.426;2023-02-19T14:56:50;15.00;55.40
17415;DHT22;8825;48.086;16.426;2023-02-19T14:59:24;14.80;56.40
17415;DHT22;8825;48.086;16.426;2023-02-19T15:02:00;14.70;56.70
17415;DHT22;8825;48.086;16.426;2023-02-19T15:04:35;14.50;58.00
17415;DHT22;8825;48.086;16.426;2023-02-19T15:07:23;14.40;58.90
17415;DHT22;8825;48.086;16.426;2023-02-19T15:09:53;14.20;59.30
17415;DHT22;8825;48.086;16.426;2023-02-19T15:12:29;14.10;59.80
17415;DHT22;8825;48.086;16.426;2023-02-19T15:14:59;14.00;60.20
17415;DHT22;8825;48.086;16.426;2023-02-19T15:17:31;13.90;60.70
17415;DHT22;8825;48.086;16.426;2023-02-19T15:20:08;13.90;61.30
17415;DHT22;8825;48.086;16.426;2023-02-19T15:22:30;13.80;61.70
17415;DHT22;8825;48.086;16.426;2023-02-19T15:25:02;13.70;62.80
17415;DHT22;8825;48.086;16.426;2023-02-19T15:27:31;13.60;63.50
17415;DHT22;8825;48.086;16.426;2023-02-19T15:30:03;13.50;64.00
17415;DHT22;8825;48.086;16.426;2023-02-19T15:32:30;13.50;64.30
17415;DHT22;8825;48.086;16.426;2023-02-19T15:35:00;13.50;64.50
17415;DHT22;8825;48.086;16.426;2023-02-19T15:37:30;13.40;65.00
17415;DHT22;8825;48.086;16.426;2023-02-19T15:40:02;13.40;65.10
17415;DHT22;8825;48.086;16.426;2023-02-19T15:42:31;13.30;65.60
17415;DHT22;8825;48.086;16.426;2023-02-19T15:45:16;13.20;66.10
17415;DHT22;8825;48.086;16.426;2023-02-19T15:48:03;13.20;66.70
17415;DHT22;8825;48.086;16.426;2023-02-19T15:50:35;13.10;67.30
17415;DHT22;8825;48.086;16.426;2023-02-19T15:53:22;13.00;69.30
17415;DHT22;8825;48.086;16.426;2023-02-19T15:58:39;12.70;70.40
17415;DHT22;8825;48.086;16.426;2023-02-19T16:01:26;12.60;70.80
17415;DHT22;8825;48.086;16.426;2023-02-19T16:03:55;12.50;71.00
17415;DHT22;8825;48.086;16.426;2023-02-19T16:06:25;12.40;71.40
17415;DHT22;8825;48.086;16.426;2023-02-19T16:09:16;12.30;71.60
17415;DHT22;8825;48.086;16.426;2023-02-19T16:11:38;12.20;72.20
17415;DHT22;8825;48.086;16.426;2023-02-19T16:14:17;12.10;72.60
17415;DHT22;8825;48.086;16.426;2023-02-19T16:16:46;12.00;73.00
17415;DHT22;8825;48.086;16.426;2023-02-19T16:19:23;12.00;73.30
17415;DHT22;8825;48.086;16.426;2023-02-19T16:21:51;12.00;73.40
17415;DHT22;8825;48.086;16.426;2023-02-19T16:24:30;12.00;73.70
17415;DHT22;8825;48.086;16.426;2023-02-19T16:26:59;11.90;74.00
17415;DHT22;8825;48.086;16.426;2023-02-19T16:29:29;11.90;74.20
17415;DHT22;8825;48.086;16.426;2023-02-19T16:31:59;11.90;74.30
17415;DHT22;8825;48.086;16.426;2023-02-19T16:37:04;11.80;74.60
17415;DHT22;8825;48.086;16.426;2023-02-19T16:39:31;11.80;74.40
17415;DHT22;8825;48.086;16.426;2023-02-19T16:42:09;11.80;74.50
17415;DHT22;8825;48.086;16.426;2023-02-19T16:44:32;11.80;74.70
17415;DHT22;8825;48.086;16.426;2023-02-19T16:47:15;11.80;74.40
17415;DHT22;8825;48.086;16.426;2023-02-19T16:49:43;11.70;74.40
17415;DHT22;8825;48.086;16.426;2023-02-19T16:52:14;11.60;74.30
17415;DHT22;8825;48.086;16.426;2023-02-19T16:55:01;11.60;74.10
17415;DHT22;8825;48.086;16.426;2023-02-19T16:57:29;11.50;73.90
17415;DHT22;8825;48.086;16.426;2023-02-19T16:59:56;11.50;73.80
17415;DHT22;8825;48.086;16.426;2023-02-19T17:02:24;11.50;73.70
17415;DHT22;8825;48.086;16.426;2023-02-19T17:04:52;11.50;73.80
17415;DHT22;8825;48.086;16.426;2023-02-19T17:07:23;11.50;73.40
17415;DHT22;8825;48.086;16.426;2023-02-19T17:09:55;11.40;74.00
17415;DHT22;8825;48.086;16.426;2023-02-19T17:12:22;11.40;73.00
17415;DHT22;8825;48.086;16.426;2023-02-19T17:14:50;11.40;72.90
17415;DHT22;8825;48.086;16.426;2023-02-19T17:17:17;11.40;72.80
17415;DHT22;8825;48.086;16.426;2023-02-19T17:19:45;11.30;73.40
17415;DHT22;8825;48.086;16.426;2023-02-19T17:22:12;11.40;72.60
17415;DHT22;8825;48.086;16.426;2023-02-19T17:24:42;11.30;72.60
17415;DHT22;8825;48.086;16.426;2023-02-19T17:27:12;11.30;72.60
17415;DHT22;8825;48.086;16.426;2023-02-19T17:29:40;11.30;72.60
17415;DHT22;8825;48.086;16.426;2023-02-19T17:32:07;11.20;72.80
17415;DHT22;8825;48.086;16.426;2023-02-19T17:34:35;11.20;72.80
17415;DHT22;8825;48.086;16.426;2023-02-19T17:37:02;11.20;72.90
17415;DHT22;8825;48.086;16.426;2023-02-19T17:39:30;11.20;73.00
17415;DHT22;8825;48.086;16.426;2023-02-19T17:41:57;11.20;73.20
17415;DHT22;8825;48.086;16.426;2023-02-19T17:44:25;11.10;73.40
17415;DHT22;8825;48.086;16.426;2023-02-19T17:46:52;11.10;73.60
17415;DHT22;8825;48.086;16.426;2023-02-19T17:49:20;11.10;73.90
17415;DHT22;8825;48.086;16.426;2023-02-19T17:51:47;11.00;73.30
17415;DHT22;8825;48.086;16.426;2023-02-19T17:54:15;11.00;74.10
17415;DHT22;8825;48.086;16.426;2023-02-19T17:56:43;11.00;74.30
17415;DHT22;8825;48.086;16.426;2023-02-19T17:59:12;10.90;74.40
17415;DHT22;8825;48.086;16.426;2023-02-19T18:01:40;10.90;74.50
17415;DHT22;8825;48.086;16.426;2023-02-19T18:04:07;10.90;74.70
17415;DHT22;8825;48.086;16.426;2023-02-19T18:06:35;10.90;74.80
17415;DHT22;8825;48.086;16.426;2023-02-19T18:09:03;10.80;74.80